Time;durP1;ratioP1;P1;durP2;ratioP2;P2;SDS_P1;SDS_P2;PMS_P1;PMS_P2;Temp;Humidity;BMP_temperature;BMP_pressure;BME280_temperature;BME280_humidity;BME280_pressure;Samples;Min_cycle;Max_cycle;Signal;HPM_P1;HPM_P2
2022/02/14 00:00:09;;;;;;;4.73;2.43;;;5.00;99.90;;;;;;5014827;28;20172;-68
2022/02/14 00:02:35;;;;;;;2.83;2.63;;;4.90;99.90;;;;;;5014518;28;20202;-68
2022/02/14 00:05:03;;;;;;;4.10;2.87;;;5.00;99.90;;;;;;5014327;28;20485;-68
2022/02/14 00:07:29;;;;;;;4.83;3.70;;;5.00;99.90;;;;;;5014578;28;20541;-70
2022/02/14 00:09:54;;;;;;;10.00;3.60;;;5.00;99.90;;;;;;5014499;28;20470;-68
2022/02/14 00:12:20;;;;;;;4.17;3.30;;;5.00;99.90;;;;;;5014035;28;20422;-68
2022/02/14 00:14:46;;;;;;;1.47;1.37;;;5.00;99.90;;;;;;5013755;28;20669;-68
2022/02/14 00:17:11;;;;;;;1.90;1.80;;;5.10;99.90;;;;;;5014299;28;20211;-68
2022/02/14 00:19:37;;;;;;;3.53;2.20;;;5.10;99.90;;;;;;5014020;28;20176;-68
2022/02/14 00:22:03;;;;;;;4.33;3.37;;;5.10;99.90;;;;;;5014195;28;20608;-68
2022/02/14 00:24:28;;;;;;;4.30;3.10;;;5.10;99.90;;;;;;5013903;28;20292;-68
2022/02/14 00:26:54;;;;;;;2.20;2.00;;;5.00;99.90;;;;;;4996306;28;20411;-68
2022/02/14 00:29:20;;;;;;;3.10;2.90;;;5.00;99.90;;;;;;5013824;28;20169;-68
2022/02/14 00:31:46;;;;;;;2.53;2.33;;;5.00;99.90;;;;;;5013791;28;20187;-68
2022/02/14 00:34:12;;;;;;;2.63;2.43;;;5.00;99.90;;;;;;5013948;28;20427;-68
2022/02/14 00:36:37;;;;;;;3.83;2.17;;;4.90;99.90;;;;;;5013792;28;20415;-68
2022/02/14 00:39:04;;;;;;;2.13;1.97;;;4.90;99.90;;;;;;5013874;28;20183;-68
2022/02/14 00:41:29;;;;;;;6.30;2.57;;;5.00;99.90;;;;;;5013978;28;20211;-68
2022/02/14 00:43:54;;;;;;;3.33;2.70;;;5.00;99.90;;;;;;5013409;28;20487;-68
2022/02/14 00:46:20;;;;;;;2.90;2.20;;;4.90;99.90;;;;;;5013903;28;20187;-68
2022/02/14 00:48:45;;;;;;;3.43;2.27;;;4.90;99.90;;;;;;5013558;28;20217;-69
2022/02/14 00:51:11;;;;;;;3.03;2.33;;;4.90;99.90;;;;;;5013534;28;20521;-68
2022/02/14 00:53:36;;;;;;;2.83;2.63;;;5.00;99.90;;;;;;5013415;28;20232;-68
2022/02/14 00:56:02;;;;;;;3.20;2.70;;;5.10;99.90;;;;;;5013338;28;20254;-68
2022/02/14 00:58:28;;;;;;;2.47;2.27;;;5.10;99.90;;;;;;5013467;28;20181;-68
2022/02/14 01:00:54;;;;;;;3.17;2.40;;;5.10;99.90;;;;;;5013729;28;20196;-69
2022/02/14 01:03:20;;;;;;;2.40;2.17;;;5.10;99.90;;;;;;5013354;28;20230;-68
2022/02/14 01:05:45;;;;;;;2.40;1.93;;;5.10;99.90;;;;;;4996023;28;20957;-68
2022/02/14 01:08:11;;;;;;;2.20;2.00;;;5.10;99.90;;;;;;5013761;28;20243;-68
2022/02/14 01:10:37;;;;;;;5.23;2.63;;;5.10;99.90;;;;;;5013488;28;20210;-68
2022/02/14 01:13:02;;;;;;;2.70;2.20;;;5.10;99.90;;;;;;5013077;28;20188;-69
2022/02/14 01:15:28;;;;;;;2.40;1.90;;;5.20;99.90;;;;;;5014021;28;20818;-68
2022/02/14 01:17:54;;;;;;;1.90;1.70;;;5.00;99.90;;;;;;5014299;28;20172;-68
2022/02/14 01:20:19;;;;;;;2.20;2.00;;;5.00;99.90;;;;;;5013860;28;20438;-68
2022/02/14 01:22:45;;;;;;;2.97;2.40;;;5.00;99.90;;;;;;5013536;28;20192;-68
2022/02/14 01:25:11;;;;;;;3.97;2.33;;;5.00;99.90;;;;;;5013284;28;20626;-68
2022/02/14 01:27:37;;;;;;;4.50;1.93;;;4.90;99.90;;;;;;5012970;28;20259;-68
2022/02/14 01:30:05;;;;;;;3.57;2.40;;;5.00;99.90;;;;;;5012560;28;20442;-68
2022/02/14 01:32:30;;;;;;;3.40;2.20;;;5.00;99.90;;;;;;5005012;28;20673;-67
2022/02/14 01:34:56;;;;;;;4.80;3.03;;;4.90;99.90;;;;;;5012818;28;20427;-68
2022/02/14 01:37:22;;;;;;;2.30;2.20;;;4.90;99.90;;;;;;4994985;28;20184;-68
2022/02/14 01:39:48;;;;;;;3.53;2.37;;;5.00;99.90;;;;;;5012452;28;20314;-69
2022/02/14 01:42:14;;;;;;;3.17;2.20;;;4.90;99.90;;;;;;5012332;28;20545;-68
2022/02/14 01:44:44;;;;;;;1.43;1.33;;;4.90;99.90;;;;;;5012440;28;20200;-68
2022/02/14 01:47:19;;;;;;;2.60;2.40;;;4.80;99.90;;;;;;5012398;28;20442;-68
2022/02/14 01:49:46;;;;;;;2.10;1.90;;;4.80;99.90;;;;;;5012389;28;20497;-69
2022/02/14 01:52:12;;;;;;;3.20;2.33;;;4.70;99.90;;;;;;5012211;28;20454;-68
2022/02/14 01:54:44;;;;;;;3.03;2.70;;;4.70;99.90;;;;;;5012018;28;20443;-68
2022/02/14 01:57:11;;;;;;;11.50;3.37;;;4.70;99.90;;;;;;5012193;28;20410;-68
2022/02/14 01:59:38;;;;;;;5.50;2.40;;;4.70;99.90;;;;;;5012236;28;20497;-69
2022/02/14 02:02:06;;;;;;;4.50;2.17;;;4.70;99.90;;;;;;5012014;28;20422;-68
2022/02/14 02:04:32;;;;;;;3.27;2.30;;;4.60;99.90;;;;;;5012451;28;20435;-68
2022/02/14 02:06:57;;;;;;;5.47;2.67;;;4.60;99.90;;;;;;5012294;28;20411;-68
2022/02/14 02:09:24;;;;;;;2.30;2.10;;;4.50;99.90;;;;;;4994936;28;20180;-69
2022/02/14 02:14:34;;;;;;;2.43;2.23;;;4.50;99.90;;;;;;5012290;28;20465;-68
2022/02/14 02:16:59;;;;;;;3.53;2.80;;;4.50;99.90;;;;;;5012278;28;20411;-69
2022/02/14 02:19:25;;;;;;;4.10;2.27;;;4.40;99.90;;;;;;5012144;28;20168;-68
2022/02/14 02:21:50;;;;;;;4.03;1.83;;;4.40;99.90;;;;;;5012060;28;20183;-68
2022/02/14 02:24:20;;;;;;;4.67;2.63;;;4.40;99.90;;;;;;5012084;28;20231;-68
2022/02/14 02:26:54;;;;;;;3.17;2.87;;;4.30;99.90;;;;;;5012438;28;20322;-68
2022/02/14 02:29:19;;;;;;;2.23;1.83;;;4.30;99.90;;;;;;5011961;28;20469;-68
2022/02/14 02:31:45;;;;;;;2.83;2.40;;;4.30;99.90;;;;;;5011987;28;20411;-69
2022/02/14 02:34:10;;;;;;;1.90;1.70;;;4.30;99.90;;;;;;5011474;28;20203;-69
2022/02/14 02:36:50;;;;;;;3.40;2.03;;;4.30;99.90;;;;;;5012812;28;20249;-70
2022/02/14 02:39:16;;;;;;;2.30;2.03;;;4.30;99.90;;;;;;5012817;28;20320;-68
2022/02/14 02:41:42;;;;;;;1.80;1.70;;;4.20;99.90;;;;;;5011828;28;20407;-68
2022/02/14 02:44:07;;;;;;;4.10;2.37;;;4.20;99.90;;;;;;4993853;28;20469;-68
2022/02/14 02:46:33;;;;;;;3.40;2.07;;;4.20;99.90;;;;;;5011703;28;20176;-68
2022/02/14 02:49:11;;;;;;;2.60;1.97;;;4.20;99.90;;;;;;5011752;28;20271;-68
2022/02/14 02:51:39;;;;;;;3.67;1.90;;;4.10;99.90;;;;;;5011908;28;20180;-68
2022/02/14 02:54:05;;;;;;;8.77;3.80;;;4.10;99.90;;;;;;5011733;28;20790;-68
2022/02/14 02:56:31;;;;;;;6.40;2.30;;;4.10;99.90;;;;;;5011388;28;20414;-67
2022/02/14 02:58:57;;;;;;;5.27;2.70;;;4.20;99.90;;;;;;5011430;28;20426;-67
2022/02/14 03:01:22;;;;;;;2.40;1.77;;;4.10;99.90;;;;;;5011458;28;20910;-68
2022/02/14 03:03:49;;;;;;;2.40;2.20;;;4.10;99.90;;;;;;5011439;28;20200;-68
2022/02/14 03:06:14;;;;;;;1.90;1.70;;;4.10;99.90;;;;;;5011839;28;20183;-68
2022/02/14 03:08:40;;;;;;;1.97;1.70;;;4.10;99.90;;;;;;5011675;28;20395;-68
2022/02/14 03:11:05;;;;;;;4.50;2.50;;;4.10;99.90;;;;;;5011610;28;20255;-68
2022/02/14 03:13:30;;;;;;;5.00;2.77;;;4.10;99.90;;;;;;5011486;28;20208;-67
2022/02/14 03:15:56;;;;;;;3.00;2.40;;;4.00;99.90;;;;;;5011424;28;20171;-70
2022/02/14 03:18:21;;;;;;;1.73;1.43;;;4.00;99.90;;;;;;5011567;28;20169;-67
2022/02/14 03:20:47;;;;;;;8.80;1.80;;;4.00;99.90;;;;;;5011511;28;20635;-68
2022/02/14 03:23:12;;;;;;;5.57;2.23;;;4.00;99.90;;;;;;5011165;28;20633;-68
2022/02/14 03:25:38;;;;;;;1.87;1.50;;;4.00;99.90;;;;;;5014994;28;20184;-68
2022/02/14 03:28:03;;;;;;;5.30;2.17;;;4.00;99.90;;;;;;5015144;28;20168;-68
2022/02/14 03:30:29;;;;;;;3.43;1.90;;;4.00;99.90;;;;;;5014999;28;20243;-68
2022/02/14 03:32:54;;;;;;;4.07;2.73;;;4.00;99.90;;;;;;5014866;28;20403;-68
2022/02/14 03:35:20;;;;;;;2.10;1.70;;;4.00;99.90;;;;;;5014970;28;20172;-68
2022/02/14 03:37:45;;;;;;;3.80;1.97;;;4.00;99.90;;;;;;5015124;28;20172;-69
2022/02/14 03:40:11;;;;;;;1.90;1.80;;;4.00;99.90;;;;;;5014706;28;20172;-67
2022/02/14 03:42:36;;;;;;;2.60;2.40;;;4.00;99.90;;;;;;4997078;28;20196;-67
2022/02/14 03:45:05;;;;;;;2.57;2.37;;;4.00;99.90;;;;;;5014866;28;20188;-68
2022/02/14 03:47:30;;;;;;;3.23;2.90;;;4.10;99.90;;;;;;5014720;28;20176;-68
2022/02/14 03:49:55;;;;;;;2.57;2.00;;;4.10;99.90;;;;;;5014944;28;20458;-68
2022/02/14 03:52:21;;;;;;;1.53;1.43;;;4.00;99.90;;;;;;5014544;28;20176;-68
2022/02/14 03:54:46;;;;;;;2.43;2.23;;;4.00;99.90;;;;;;5014399;28;20207;-68
2022/02/14 03:57:12;;;;;;;3.00;1.90;;;4.10;99.90;;;;;;5014759;28;20587;-68
2022/02/14 03:59:38;;;;;;;1.60;1.50;;;4.10;99.90;;;;;;5014413;28;20541;-68
2022/02/14 04:02:04;;;;;;;1.80;1.70;;;4.00;99.90;;;;;;5014270;28;20247;-68
2022/02/14 04:04:29;;;;;;;2.37;2.17;;;4.10;99.90;;;;;;5014228;28;20518;-68
2022/02/14 04:06:55;;;;;;;2.00;1.90;;;4.10;99.90;;;;;;5014303;28;20204;-68
2022/02/14 04:09:21;;;;;;;1.93;1.80;;;4.10;99.90;;;;;;5014637;28;20169;-68
2022/02/14 04:11:46;;;;;;;4.30;2.07;;;4.10;99.90;;;;;;5014384;28;20461;-68
2022/02/14 04:14:12;;;;;;;3.33;2.73;;;4.10;99.90;;;;;;5013922;28;20227;-68
2022/02/14 04:16:37;;;;;;;1.83;1.73;;;4.10;99.90;;;;;;5014164;28;20179;-68
2022/02/14 04:19:03;;;;;;;2.93;1.87;;;4.10;99.90;;;;;;5014120;28;20303;-67
2022/02/14 04:21:28;;;;;;;1.70;1.60;;;4.10;99.90;;;;;;5014062;28;20173;-68
2022/02/14 04:23:54;;;;;;;2.23;2.03;;;4.20;99.90;;;;;;5013818;28;20215;-67
2022/02/14 04:26:19;;;;;;;2.67;1.83;;;4.20;99.90;;;;;;5013917;28;20273;-68
2022/02/14 04:28:45;;;;;;;2.87;2.57;;;4.20;99.90;;;;;;5013789;28;20169;-68
2022/02/14 04:31:10;;;;;;;3.23;1.83;;;4.20;99.90;;;;;;5013888;28;20164;-68
2022/02/14 04:33:36;;;;;;;2.20;1.63;;;4.20;99.90;;;;;;5013715;28;20267;-68
2022/02/14 04:36:01;;;;;;;3.53;1.93;;;4.20;99.90;;;;;;5013665;28;20164;-68
2022/02/14 04:38:27;;;;;;;3.20;2.47;;;4.20;99.90;;;;;;5014427;28;20574;-68
2022/02/14 04:40:53;;;;;;;1.80;1.70;;;4.20;99.90;;;;;;5013603;28;20180;-68
2022/02/14 04:43:18;;;;;;;2.80;2.27;;;4.30;99.90;;;;;;5013340;28;20212;-68
2022/02/14 04:45:44;;;;;;;1.50;1.33;;;4.30;99.90;;;;;;5013451;28;20395;-68
2022/02/14 04:48:09;;;;;;;1.80;1.60;;;4.30;99.90;;;;;;5013526;28;20168;-68
2022/02/14 04:50:35;;;;;;;2.80;2.33;;;4.30;99.90;;;;;;5013542;28;20191;-68
2022/02/14 04:53:00;;;;;;;1.67;1.57;;;4.30;99.90;;;;;;5013483;28;20248;-68
2022/02/14 04:55:26;;;;;;;2.20;2.10;;;4.30;99.90;;;;;;5013406;28;20176;-68
2022/02/14 04:57:53;;;;;;;3.10;2.60;;;4.30;99.90;;;;;;5013748;28;20203;-68
2022/02/14 05:00:19;;;;;;;1.77;1.67;;;4.30;99.90;;;;;;5013630;28;20172;-68
2022/02/14 05:02:44;;;;;;;1.80;1.70;;;4.30;99.90;;;;;;5013519;28;20486;-68
2022/02/14 05:05:10;;;;;;;4.63;2.07;;;4.30;99.90;;;;;;5013604;28;20246;-68
2022/02/14 05:07:36;;;;;;;1.77;1.67;;;4.30;99.90;;;;;;5013468;28;20168;-68
2022/02/14 05:10:02;;;;;;;3.13;2.87;;;4.30;99.90;;;;;;5014221;28;20230;-68
2022/02/14 05:12:28;;;;;;;5.20;1.63;;;4.20;99.90;;;;;;5013191;28;20183;-68
2022/02/14 05:14:53;;;;;;;1.80;1.70;;;4.30;99.90;;;;;;5013793;28;20446;-68
2022/02/14 05:17:18;;;;;;;3.10;2.87;;;4.30;99.90;;;;;;5013593;28;20515;-68
2022/02/14 05:19:44;;;;;;;2.03;1.80;;;4.30;99.90;;;;;;5013833;28;20176;-68
2022/02/14 05:22:10;;;;;;;2.80;1.70;;;4.20;99.90;;;;;;5013351;28;20252;-68
2022/02/14 05:24:36;;;;;;;3.57;1.60;;;4.30;99.90;;;;;;5013696;28;20187;-68
2022/02/14 05:27:02;;;;;;;3.10;2.37;;;4.30;99.90;;;;;;5013526;28;20407;-68
2022/02/14 05:29:27;;;;;;;3.00;2.23;;;4.30;99.90;;;;;;5012680;28;20406;-69
2022/02/14 05:31:53;;;;;;;2.50;1.50;;;4.30;99.90;;;;;;5012652;28;20486;-68
2022/02/14 05:34:18;;;;;;;2.50;1.97;;;4.40;99.90;;;;;;5012526;28;20192;-68
2022/02/14 05:36:44;;;;;;;2.40;1.50;;;4.30;99.90;;;;;;5012381;28;20695;-68
2022/02/14 05:39:09;;;;;;;1.53;1.30;;;4.20;99.90;;;;;;5012439;28;20474;-68
2022/02/14 05:41:35;;;;;;;2.20;1.70;;;4.30;99.90;;;;;;5012479;28;20258;-68
2022/02/14 05:44:01;;;;;;;4.40;2.60;;;4.30;99.90;;;;;;5012447;28;20208;-68
2022/02/14 05:46:28;;;;;;;3.33;1.90;;;4.40;99.90;;;;;;5011965;28;20164;-67
2022/02/14 05:48:54;;;;;;;1.70;1.60;;;4.30;99.90;;;;;;5012809;28;20538;-68
2022/02/14 05:51:19;;;;;;;3.27;1.53;;;4.20;99.90;;;;;;5012598;28;20411;-68
2022/02/14 05:53:45;;;;;;;2.43;1.93;;;4.20;99.90;;;;;;5012686;28;20196;-68
2022/02/14 05:56:11;;;;;;;3.30;2.80;;;4.20;99.90;;;;;;5012380;28;20181;-68
2022/02/14 05:58:36;;;;;;;2.07;1.67;;;4.10;99.90;;;;;;5012413;28;20211;-68
2022/02/14 06:01:02;;;;;;;5.50;2.77;;;4.10;99.90;;;;;;5012443;28;20184;-68
2022/02/14 06:03:28;;;;;;;3.03;2.17;;;4.10;99.90;;;;;;5012098;28;20200;-67
2022/02/14 06:05:53;;;;;;;3.20;2.90;;;4.10;99.90;;;;;;5012084;28;20414;-67
2022/02/14 06:08:19;;;;;;;2.43;2.20;;;4.00;99.90;;;;;;5012132;28;20691;-67
2022/02/14 06:10:44;;;;;;;6.97;3.33;;;4.00;99.90;;;;;;5012408;28;20195;-67
2022/02/14 06:13:10;;;;;;;2.90;2.63;;;4.00;99.90;;;;;;5012702;28;20208;-68
2022/02/14 06:15:35;;;;;;;2.70;1.83;;;4.00;99.90;;;;;;5012683;28;20168;-68
2022/02/14 06:18:01;;;;;;;2.50;2.03;;;4.00;99.90;;;;;;5012352;28;20690;-68
2022/02/14 06:20:26;;;;;;;2.70;2.43;;;4.00;99.90;;;;;;5012340;28;20200;-68
2022/02/14 06:22:52;;;;;;;4.10;3.07;;;4.00;99.90;;;;;;5012664;28;20204;-68
2022/02/14 06:25:17;;;;;;;4.60;3.17;;;4.00;99.90;;;;;;5012995;28;20176;-68
2022/02/14 06:27:43;;;;;;;4.30;1.97;;;4.00;99.90;;;;;;5013286;28;20251;-70
2022/02/14 06:30:09;;;;;;;3.70;3.03;;;4.00;99.90;;;;;;5013583;28;20172;-68
2022/02/14 06:32:34;;;;;;;2.70;2.50;;;4.00;99.90;;;;;;5012236;28;20176;-68
2022/02/14 06:35:02;;;;;;;5.60;3.20;;;4.00;99.90;;;;;;5011726;28;20196;-68
2022/02/14 06:37:37;;;;;;;3.83;2.80;;;4.00;99.90;;;;;;5011428;28;20721;-68
2022/02/14 06:40:04;;;;;;;2.70;2.03;;;4.00;99.90;;;;;;4962133;28;20426;-68
2022/02/14 06:42:30;;;;;;;4.67;2.67;;;4.10;99.90;;;;;;5011382;28;20466;-68
2022/02/14 06:44:55;;;;;;;1.77;1.67;;;4.20;99.90;;;;;;5011630;28;20427;-68
2022/02/14 06:47:20;;;;;;;3.63;2.70;;;4.20;99.90;;;;;;5011771;28;20595;-69
2022/02/14 06:49:46;;;;;;;2.90;2.30;;;4.20;99.90;;;;;;5011675;28;20517;-68
2022/02/14 06:52:11;;;;;;;3.03;2.07;;;4.30;99.90;;;;;;5011753;28;20173;-69
2022/02/14 06:54:37;;;;;;;5.60;2.80;;;4.30;99.90;;;;;;5011587;28;20195;-66
2022/02/14 06:57:03;;;;;;;6.73;2.77;;;4.30;99.90;;;;;;5011645;28;20262;-67
2022/02/14 06:59:28;;;;;;;5.17;2.57;;;4.40;99.90;;;;;;5015408;28;20168;-67
2022/02/14 07:01:54;;;;;;;4.30;2.80;;;4.40;99.90;;;;;;5015321;28;20251;-67
2022/02/14 07:04:19;;;;;;;2.70;2.50;;;4.50;99.90;;;;;;5015205;28;20200;-67
2022/02/14 07:06:45;;;;;;;2.00;1.90;;;4.40;99.90;;;;;;5015279;28;20236;-67
2022/02/14 07:09:10;;;;;;;2.00;1.87;;;4.50;99.90;;;;;;5015504;28;20251;-67
2022/02/14 07:11:36;;;;;;;3.60;2.27;;;4.60;99.90;;;;;;5015725;28;20248;-68
2022/02/14 07:14:01;;;;;;;3.70;2.10;;;5.20;99.90;;;;;;5015728;28;20240;-68
2022/02/14 07:16:27;;;;;;;3.90;2.70;;;5.20;99.90;;;;;;5015504;28;20623;-68
2022/02/14 07:18:52;;;;;;;3.90;2.77;;;5.10;99.90;;;;;;5015650;28;20255;-68
2022/02/14 07:21:19;;;;;;;2.13;1.90;;;5.00;99.90;;;;;;4998133;28;20659;-68
2022/02/14 07:23:45;;;;;;;3.87;2.13;;;5.10;99.90;;;;;;5015665;28;20248;-68
2022/02/14 07:26:10;;;;;;;1.70;1.60;;;5.00;99.90;;;;;;5015851;28;20435;-68
2022/02/14 07:28:36;;;;;;;3.00;2.03;;;5.10;99.90;;;;;;5015947;28;20590;-69
2022/02/14 07:31:01;;;;;;;3.57;2.10;;;5.20;99.90;;;;;;5015933;28;20600;-67
2022/02/14 07:33:27;;;;;;;2.50;2.30;;;5.40;99.90;;;;;;5015165;28;20231;-68
2022/02/14 07:35:52;;;;;;;4.03;3.03;;;5.80;99.90;;;;;;5015395;28;20263;-68
2022/02/14 07:38:18;;;;;;;3.90;2.37;;;5.80;99.90;;;;;;5015471;28;20541;-68
2022/02/14 07:40:44;;;;;;;4.53;2.77;;;6.10;99.90;;;;;;5013096;28;20183;-67
2022/02/14 07:43:09;;;;;;;4.20;2.47;;;6.30;99.90;;;;;;5014316;28;20210;-67
2022/02/14 07:45:35;;;;;;;3.77;2.33;;;6.30;99.90;;;;;;5014737;28;20201;-68
2022/02/14 07:48:01;;;;;;;1.83;1.73;;;6.50;99.90;;;;;;5014677;28;20172;-68
2022/02/14 07:50:27;;;;;;;2.30;1.80;;;6.60;99.90;;;;;;5014992;28;20179;-68
2022/02/14 07:52:53;;;;;;;4.80;2.80;;;6.50;99.90;;;;;;5015031;28;20415;-68
2022/02/14 07:55:18;;;;;;;4.07;2.43;;;6.60;99.90;;;;;;5015013;28;20437;-68
2022/02/14 07:57:44;;;;;;;3.93;2.20;;;7.00;99.90;;;;;;5015045;28;20631;-67
2022/02/14 08:00:11;;;;;;;3.77;2.70;;;7.10;99.90;;;;;;5014641;28;20223;-67
2022/02/14 08:02:37;;;;;;;4.50;2.87;;;7.00;99.90;;;;;;5014460;28;20559;-68
2022/02/14 08:05:03;;;;;;;3.27;2.33;;;7.20;99.90;;;;;;5014994;28;20507;-68
2022/02/14 08:07:29;;;;;;;2.43;2.23;;;7.80;99.90;;;;;;5015047;28;20192;-66
2022/02/14 08:09:54;;;;;;;4.27;2.47;;;7.90;99.90;;;;;;5014128;28;20474;-70
2022/02/14 08:12:20;;;;;;;2.20;1.93;;;8.10;99.90;;;;;;5014408;28;20230;-67
2022/02/14 08:14:48;;;;;;;3.37;2.13;;;8.30;99.90;;;;;;5014089;28;20262;-67
2022/02/14 08:17:13;;;;;;;3.50;1.97;;;8.60;99.90;;;;;;5014607;28;20832;-68
2022/02/14 08:19:39;;;;;;;6.40;2.87;;;8.50;99.90;;;;;;5014281;28;20502;-68
2022/02/14 08:22:05;;;;;;;2.73;2.43;;;8.80;99.90;;;;;;5014847;28;20191;-69
2022/02/14 08:24:30;;;;;;;2.70;1.83;;;8.70;99.90;;;;;;5014231;28;20192;-67
2022/02/14 08:26:56;;;;;;;3.30;1.93;;;8.60;99.90;;;;;;5014610;28;20400;-67
2022/02/14 08:29:21;;;;;;;2.67;1.73;;;8.70;99.90;;;;;;5014368;28;20267;-67
2022/02/14 08:31:47;;;;;;;2.40;1.97;;;8.70;99.90;;;;;;5013868;28;20173;-68
2022/02/14 08:34:13;;;;;;;2.80;1.50;;;9.30;99.90;;;;;;5013890;28;20196;-68
2022/02/14 08:36:40;;;;;;;1.97;1.83;;;9.10;99.90;;;;;;5013821;28;20164;-68
2022/02/14 08:39:05;;;;;;;2.13;1.93;;;9.60;99.90;;;;;;5013764;28;20423;-68
2022/02/14 08:41:31;;;;;;;2.17;1.90;;;9.70;99.90;;;;;;5013950;28;20413;-68
2022/02/14 08:43:56;;;;;;;2.70;2.10;;;9.00;99.70;;;;;;5013503;28;20246;-68
2022/02/14 08:46:23;;;;;;;2.87;2.20;;;9.30;99.70;;;;;;5013506;28;20176;-68
2022/02/14 08:48:49;;;;;;;2.73;1.73;;;9.50;99.60;;;;;;5013494;28;20177;-68
2022/02/14 08:51:17;;;;;;;1.90;1.77;;;8.90;99.00;;;;;;5013351;28;20494;-68
2022/02/14 08:53:43;;;;;;;2.57;2.10;;;9.40;99.70;;;;;;5013231;28;20490;-68
2022/02/14 08:56:09;;;;;;;2.20;2.00;;;8.80;99.80;;;;;;5013452;28;20411;-67
2022/02/14 08:58:37;;;;;;;2.23;1.90;;;8.40;99.90;;;;;;5013783;28;20743;-70
2022/02/14 09:01:03;;;;;;;2.60;1.90;;;8.70;99.90;;;;;;5013093;28;20426;-67
2022/02/14 09:03:29;;;;;;;2.57;2.33;;;9.10;99.90;;;;;;5012908;28;21121;-67
2022/02/14 09:05:55;;;;;;;1.67;1.53;;;9.10;99.90;;;;;;5013300;28;20498;-67
2022/02/14 09:08:22;;;;;;;2.50;1.67;;;9.80;99.00;;;;;;5013533;28;20411;-68
2022/02/14 09:10:48;;;;;;;2.40;1.77;;;10.00;97.70;;;;;;5013534;28;20638;-68
2022/02/14 09:13:13;;;;;;;3.47;2.10;;;10.00;97.20;;;;;;5013458;28;20469;-68
2022/02/14 09:15:39;;;;;;;1.40;1.30;;;10.00;95.90;;;;;;5013192;28;20662;-68
2022/02/14 09:18:05;;;;;;;2.00;1.77;;;9.70;97.50;;;;;;5013464;28;20246;-68
2022/02/14 09:20:30;;;;;;;2.00;1.40;;;10.20;96.00;;;;;;5013917;28;20187;-68
2022/02/14 09:22:56;;;;;;;2.47;1.70;;;10.50;95.30;;;;;;5012957;28;20269;-68
2022/02/14 09:25:23;;;;;;;2.70;1.80;;;10.90;95.10;;;;;;5013971;28;20750;-69
2022/02/14 09:27:49;;;;;;;1.60;1.50;;;10.20;95.00;;;;;;5012958;28;20165;-68
2022/02/14 09:30:14;;;;;;;3.80;1.60;;;10.10;94.80;;;;;;5012731;28;20783;-68
2022/02/14 09:32:40;;;;;;;3.10;1.50;;;9.90;96.20;;;;;;5012910;28;20183;-68
2022/02/14 09:35:06;;;;;;;2.10;1.90;;;10.10;94.70;;;;;;5012550;28;20192;-69
2022/02/14 09:37:32;;;;;;;1.47;1.27;;;10.30;94.20;;;;;;5012676;28;20282;-68
2022/02/14 09:39:58;;;;;;;5.20;2.10;;;10.50;94.40;;;;;;5012742;28;20445;-68
2022/02/14 09:42:24;;;;;;;2.30;1.57;;;9.90;95.00;;;;;;5012541;28;20254;-68
2022/02/14 09:44:50;;;;;;;1.70;1.60;;;10.20;94.50;;;;;;5012405;28;20435;-68
2022/02/14 09:47:16;;;;;;;3.03;1.87;;;10.00;95.30;;;;;;5012642;28;20180;-69
2022/02/14 09:49:41;;;;;;;2.20;1.33;;;10.10;94.70;;;;;;5012491;28;20470;-68
2022/02/14 09:52:08;;;;;;;1.73;1.53;;;10.40;94.40;;;;;;5012319;28;20398;-68
2022/02/14 09:54:33;;;;;;;2.03;1.83;;;10.40;94.20;;;;;;5012168;28;20207;-68
2022/02/14 09:56:59;;;;;;;1.50;1.40;;;10.00;94.30;;;;;;5012256;28;20411;-68
2022/02/14 09:59:24;;;;;;;1.30;1.20;;;10.00;94.70;;;;;;5012225;28;20178;-68
2022/02/14 10:01:50;;;;;;;2.30;2.10;;;9.80;96.30;;;;;;5012175;28;20160;-68
2022/02/14 10:04:16;;;;;;;4.03;2.13;;;10.00;94.90;;;;;;5012237;28;20212;-68
2022/02/14 10:06:45;;;;;;;1.50;1.40;;;9.90;96.00;;;;;;5012239;28;20414;-68
2022/02/14 10:09:25;;;;;;;3.10;2.90;;;9.90;95.80;;;;;;5012334;28;20184;-68
2022/02/14 10:12:02;;;;;;;2.20;2.10;;;10.00;95.10;;;;;;5012089;28;20785;-68
2022/02/14 10:14:29;;;;;;;1.67;1.57;;;9.90;95.30;;;;;;5012002;28;20450;-68
2022/02/14 10:17:00;;;;;;;1.87;1.30;;;9.90;96.10;;;;;;5012950;28;20403;-68
2022/02/14 10:19:26;;;;;;;2.27;2.07;;;9.80;96.90;;;;;;5015119;28;20407;-68
2022/02/14 10:21:51;;;;;;;1.47;1.20;;;10.00;96.10;;;;;;5014603;28;20412;-67
2022/02/14 10:24:17;;;;;;;1.30;1.20;;;10.00;95.80;;;;;;5012037;28;20279;-68
2022/02/14 10:26:49;;;;;;;1.80;1.70;;;10.10;95.20;;;;;;5012156;28;20179;-68
2022/02/14 10:29:19;;;;;;;2.83;2.20;;;10.10;95.60;;;;;;5011849;28;20590;-68
2022/02/14 10:31:50;;;;;;;1.50;1.40;;;10.00;95.50;;;;;;5011815;28;20395;-67
2022/02/14 10:34:17;;;;;;;1.40;1.30;;;10.20;95.30;;;;;;5011487;28;20796;-67
2022/02/14 10:36:45;;;;;;;2.47;1.80;;;10.20;95.20;;;;;;5011761;28;20426;-68
2022/02/14 10:39:25;;;;;;;2.80;1.83;;;10.20;94.90;;;;;;5011914;28;20828;-67
2022/02/14 10:42:02;;;;;;;1.27;1.10;;;10.20;94.80;;;;;;5011910;28;20406;-68
2022/02/14 10:47:33;;;;;;;3.33;1.87;;;10.30;94.90;;;;;;5011709;28;20438;-69
2022/02/14 10:50:21;;;;;;;4.07;1.60;;;10.30;95.00;;;;;;5012216;28;20482;-68
2022/02/14 10:52:52;;;;;;;2.17;1.97;;;10.40;95.00;;;;;;5011653;28;20427;-68
2022/02/14 10:55:19;;;;;;;2.90;1.93;;;10.40;94.80;;;;;;5011664;28;20409;-68
2022/02/14 10:57:47;;;;;;;1.37;1.27;;;10.50;94.90;;;;;;5011554;28;20613;-68
2022/02/14 11:00:18;;;;;;;3.57;1.97;;;10.50;95.10;;;;;;5011438;28;20494;-68
2022/02/14 11:02:47;;;;;;;1.87;1.60;;;10.60;95.20;;;;;;5011490;28;20450;-69
2022/02/14 11:05:13;;;;;;;3.47;2.33;;;10.70;94.70;;;;;;5011387;28;20419;-67
2022/02/14 11:07:40;;;;;;;3.63;2.20;;;10.60;94.80;;;;;;5011299;28;20407;-68
2022/02/14 11:10:12;;;;;;;3.27;2.60;;;10.70;95.30;;;;;;5011354;28;20486;-68
2022/02/14 11:12:58;;;;;;;2.27;2.10;;;10.70;95.10;;;;;;5011593;28;20419;-68
2022/02/14 11:15:31;;;;;;;1.83;1.20;;;10.80;95.10;;;;;;5011809;28;20405;-67
2022/02/14 11:18:10;;;;;;;2.00;1.80;;;10.70;94.50;;;;;;5011272;28;20913;-67
2022/02/14 11:20:35;;;;;;;4.00;1.90;;;10.80;95.00;;;;;;5011321;28;20399;-67
2022/02/14 11:23:04;;;;;;;1.70;1.50;;;10.80;94.70;;;;;;5011163;28;20469;-68
2022/02/14 11:25:54;;;;;;;3.20;1.67;;;10.80;94.80;;;;;;5011459;28;20314;-68
2022/02/14 11:28:25;;;;;;;2.63;2.00;;;10.80;95.10;;;;;;5011802;28;20442;-68
2022/02/14 11:31:08;;;;;;;2.50;1.40;;;10.90;94.90;;;;;;4993534;28;20415;-68
2022/02/14 11:33:34;;;;;;;1.87;1.70;;;11.00;95.00;;;;;;5011276;28;20454;-69
2022/02/14 11:36:05;;;;;;;1.43;1.33;;;11.10;95.20;;;;;;5011021;28;20414;-68
2022/02/14 11:38:41;;;;;;;1.30;1.20;;;11.20;94.80;;;;;;5011370;28;20242;-69
2022/02/14 11:41:35;;;;;;;2.37;1.43;;;11.30;95.00;;;;;;5011134;28;20419;-68
2022/02/14 11:44:14;;;;;;;2.37;2.17;;;11.30;94.80;;;;;;5011403;28;20458;-69
2022/02/14 11:46:42;;;;;;;1.40;1.30;;;11.30;94.60;;;;;;5014623;28;20391;-70
2022/02/14 11:49:08;;;;;;;1.50;1.40;;;11.40;94.70;;;;;;5014655;28;20503;-69
2022/02/14 11:51:45;;;;;;;1.70;1.60;;;11.50;95.20;;;;;;5014596;28;20486;-70
2022/02/14 11:54:35;;;;;;;2.30;1.37;;;11.60;95.00;;;;;;5014377;28;20600;-68
2022/02/14 11:57:21;;;;;;;1.43;1.30;;;11.40;95.00;;;;;;5014415;28;20403;-70
2022/02/14 11:59:47;;;;;;;2.13;1.40;;;11.60;95.20;;;;;;5014615;28;20403;-68
2022/02/14 12:02:13;;;;;;;1.50;1.40;;;11.60;94.90;;;;;;5014057;28;20414;-69
2022/02/14 12:04:41;;;;;;;1.90;1.80;;;11.70;94.90;;;;;;5014202;28;20584;-70
2022/02/14 12:07:13;;;;;;;2.10;1.87;;;11.70;94.80;;;;;;5014663;28;20404;-69
2022/02/14 12:09:56;;;;;;;2.73;1.83;;;11.70;94.90;;;;;;5014555;28;20419;-69
2022/02/14 12:12:56;;;;;;;2.83;1.57;;;11.70;94.80;;;;;;5012192;28;20529;-68
2022/02/14 12:20:48;;;;;;;1.27;1.17;;;11.80;94.90;;;;;;5014539;28;20438;-69
2022/02/14 12:23:25;;;;;;;2.73;2.20;;;11.90;94.90;;;;;;5013640;28;20466;-69
2022/02/14 12:25:51;;;;;;;2.60;1.20;;;11.90;95.00;;;;;;5014004;28;20437;-68
2022/02/14 12:28:19;;;;;;;1.40;1.27;;;11.90;95.30;;;;;;5014037;28;20486;-68
2022/02/14 12:30:45;;;;;;;2.80;1.63;;;11.90;95.40;;;;;;5013823;28;20314;-68
2022/02/14 12:33:12;;;;;;;1.77;1.57;;;12.00;95.20;;;;;;5013745;28;20580;-68
2022/02/14 12:35:43;;;;;;;1.93;1.77;;;12.10;95.10;;;;;;5013709;28;20411;-69
2022/02/14 12:38:09;;;;;;;1.60;1.10;;;12.10;95.10;;;;;;5013600;28;20532;-68
2022/02/14 12:40:48;;;;;;;1.50;1.40;;;12.20;95.10;;;;;;5013690;28;20419;-68
2022/02/14 12:43:26;;;;;;;2.97;2.20;;;12.20;95.40;;;;;;5013108;28;20837;-68
2022/02/14 12:45:56;;;;;;;1.67;1.40;;;12.30;95.10;;;;;;5012383;28;20407;-69
2022/02/14 12:48:34;;;;;;;1.70;1.60;;;12.30;95.00;;;;;;5013311;28;20466;-68
2022/02/14 12:51:06;;;;;;;1.50;1.40;;;12.40;94.90;;;;;;5013425;28;20454;-68
2022/02/14 12:53:34;;;;;;;1.60;1.50;;;12.40;95.10;;;;;;5013262;28;20521;-68
2022/02/14 12:56:16;;;;;;;1.90;1.60;;;12.50;95.10;;;;;;4995258;28;20425;-68
2022/02/14 12:58:56;;;;;;;2.07;1.20;;;12.40;95.50;;;;;;5013129;28;20478;-68
2022/02/14 13:01:25;;;;;;;1.60;1.30;;;12.50;95.10;;;;;;5013605;28;20403;-68
2022/02/14 13:03:59;;;;;;;2.00;1.50;;;12.50;95.10;;;;;;5013156;28;20463;-68
2022/02/14 13:06:56;;;;;;;2.60;1.47;;;12.60;95.10;;;;;;5013215;28;20844;-69